»·PEaware :: N2442P L52-L88

N2442P :: L52-L88

FLIGHT INFORMATION

Flight Status: Arrived
Operator: Privately registered:
United States
More flights under this callsign
Pilot: Ken Q. (14290)
Aircraft: MOONEY M-20K/M ENCORE BRAVO
(M20T)
More flights by this aircraft type
Origin: L52 Oceano Co
United States
Destination: L88 New Cuyama
United States
More flights between these airports :: More routes between these airports
Route: L52 FLW L88
File this flight plan on PilotEdge
Remarks:
Altitude:
(Current/Filed)
7,500ft
Speed:
(Current/Filed)
175kts
Departed: 16-Nov-18 11:35 AM
Arrived: 16-Nov-18 12:01 PM
Distance/Time
Traveled:
47nm/0:25
Distance/Time
To Go:
Arrived

Flight Plot

Page will automatically refresh every two minutes.


Map Options




Map Legend


Flown Route
Filed Route
Departure Airport
Arrival Airport
Navaid (VOR, NDB)
Fix

Horizontal Profiles

Position Reports

Time Latitude Longitude Heading Altitude Ground
Speed
16-Nov-18 11:13 35.103506 -120.624678 211 17ft 0kts
16-Nov-18 11:14 35.103506 -120.624678 211 17ft 0kts
16-Nov-18 11:15 35.103506 -120.624678 211 17ft 0kts
16-Nov-18 11:16 35.103506 -120.624678 211 17ft 0kts
16-Nov-18 11:17 35.103506 -120.624678 211 17ft 0kts
16-Nov-18 11:18 35.103506 -120.624678 211 17ft 0kts
16-Nov-18 11:19 35.103506 -120.624678 211 17ft 0kts
16-Nov-18 11:20 35.103506 -120.624678 211 17ft 0kts
16-Nov-18 11:21 35.103506 -120.624678 211 17ft 0kts
16-Nov-18 11:22 35.103506 -120.624678 211 17ft 0kts
16-Nov-18 11:23 35.103506 -120.624678 211 17ft 0kts
16-Nov-18 11:24 35.103506 -120.624678 211 17ft 0kts
16-Nov-18 11:25 35.103506 -120.624678 211 17ft 0kts
16-Nov-18 11:26 35.103506 -120.624678 211 17ft 0kts
16-Nov-18 11:27 35.103506 -120.624678 211 17ft 0kts
16-Nov-18 11:28 35.103506 -120.624678 211 17ft 0kts
16-Nov-18 11:29 35.103505 -120.624678 211 17ft 0kts
16-Nov-18 11:30 35.103505 -120.624678 211 17ft 0kts
16-Nov-18 11:31 35.103505 -120.624679 211 17ft 0kts
16-Nov-18 11:32 35.103481 -120.624694 205 17ft 1kts
16-Nov-18 11:33 35.101983 -120.622307 159 17ft 7kts
16-Nov-18 11:34 35.100916 -120.622125 123 17ft 10kts
16-Nov-18 11:35 35.099491 -120.619614 307 17ft 2kts
16-Nov-18 11:36 35.099497 -120.619624 306 17ft 0kts
16-Nov-18 11:37 35.099875 -120.619341 339 17ft 5kts
16-Nov-18 11:38 35.105477 -120.634883 258 222ft 98kts
16-Nov-18 11:39 35.085030 -120.616887 89 805ft 135kts
16-Nov-18 11:40 35.085558 -120.572697 86 1397ft 144kts
16-Nov-18 11:41 35.087367 -120.523979 86 2022ft 142kts
16-Nov-18 11:42 35.089542 -120.477222 86 2755ft 132kts
16-Nov-18 11:43 35.091912 -120.433670 86 3536ft 125kts
16-Nov-18 11:44 35.093971 -120.398494 86 4200ft 123kts
16-Nov-18 11:45 35.097128 -120.349395 86 5038ft 129kts
16-Nov-18 11:46 35.099219 -120.312354 87 5532ft 132kts
16-Nov-18 11:47 35.102370 -120.259051 87 6241ft 136kts
16-Nov-18 11:48 35.104638 -120.220215 87 6743ft 139kts
16-Nov-18 11:49 35.107613 -120.164971 89 7432ft 141kts
16-Nov-18 11:50 35.107432 -120.121510 91 7510ft 164kts
16-Nov-18 11:51 35.106845 -120.053382 91 7505ft 176kts
16-Nov-18 11:52 35.095917 -120.005899 115 7433ft 172kts
16-Nov-18 11:53 35.077113 -119.955286 115 6911ft 151kts
16-Nov-18 11:54 35.062233 -119.909592 112 6399ft 140kts
16-Nov-18 11:55 35.048321 -119.865563 112 5905ft 139kts
16-Nov-18 11:56 35.030728 -119.823862 125 5409ft 138kts
16-Nov-18 11:57 35.008547 -119.787079 127 4909ft 129kts
16-Nov-18 11:58 34.985823 -119.753889 131 4273ft 124kts
16-Nov-18 11:59 34.961615 -119.731163 149 3696ft 117kts
16-Nov-18 12:00 34.936129 -119.706708 140 3071ft 115kts
16-Nov-18 12:01 34.919734 -119.681097 118 2971ft 82kts
16-Nov-18 12:02 34.922149 -119.655637 7 3019ft 94kts
16-Nov-18 12:03 34.936315 -119.676773 296 2338ft 91kts
16-Nov-18 12:04 34.942114 -119.690680 334 2206ft 3kts
16-Nov-18 12:05 34.943661 -119.690946 117 2206ft 0kts
16-Nov-18 12:06 34.943685 -119.691003 121 2206ft 0kts
16-Nov-18 12:07 34.943687 -119.691007 121 2206ft 0kts
16-Nov-18 12:08 34.943687 -119.691007 121 2206ft 0kts
16-Nov-18 12:09 34.943687 -119.691007 121 2206ft 0kts
16-Nov-18 12:10 34.943687 -119.691007 121 2206ft 0kts

Navigation Log

Ident Type
Flight plan parsing failed, navigation log unavailable